sensor_id;sensor_type;location;lat;lon;timestamp;pressure;altitude;pressure_sealevel;temperature;humidity
53900;BME280;40509;32.858;-116.858;2023-06-05T00:00:48;97511.91;;;23.81;52.12
53900;BME280;40509;32.858;-116.858;2023-06-05T00:03:15;97513.72;;;23.81;52.28
53900;BME280;40509;32.858;-116.858;2023-06-05T00:05:44;97518.81;;;23.82;52.17
53900;BME280;40509;32.858;-116.858;2023-06-05T00:08:10;97521.44;;;23.82;52.15
53900;BME280;40509;32.858;-116.858;2023-06-05T00:10:38;97529.00;;;23.85;52.18
53900;BME280;40509;32.858;-116.858;2023-06-05T00:13:05;97524.34;;;23.87;52.04
53900;BME280;40509;32.858;-116.858;2023-06-05T00:15:32;97521.72;;;23.87;51.90
53900;BME280;40509;32.858;-116.858;2023-06-05T00:18:02;97523.41;;;23.88;51.89
53900;BME280;40509;32.858;-116.858;2023-06-05T00:20:30;97523.41;;;23.88;52.29
53900;BME280;40509;32.858;-116.858;2023-06-05T00:22:57;97536.56;;;23.88;52.40
53900;BME280;40509;32.858;-116.858;2023-06-05T00:25:25;97532.16;;;23.89;52.14
53900;BME280;40509;32.858;-116.858;2023-06-05T00:27:52;97536.41;;;23.90;52.06
53900;BME280;40509;32.858;-116.858;2023-06-05T00:30:19;97545.16;;;23.90;52.23
53900;BME280;40509;32.858;-116.858;2023-06-05T00:32:46;97536.25;;;23.92;52.14
53900;BME280;40509;32.858;-116.858;2023-06-05T00:35:14;97544.97;;;23.92;52.11
53900;BME280;40509;32.858;-116.858;2023-06-05T00:37:41;97551.88;;;23.93;51.96
53900;BME280;40509;32.858;-116.858;2023-06-05T00:40:11;97549.06;;;23.95;52.43
53900;BME280;40509;32.858;-116.858;2023-06-05T00:42:38;97550.88;;;23.94;52.03
53900;BME280;40509;32.858;-116.858;2023-06-05T00:45:06;97565.69;;;23.95;52.03
53900;BME280;40509;32.858;-116.858;2023-06-05T00:47:33;97559.63;;;23.95;51.97
53900;BME280;40509;32.858;-116.858;2023-06-05T00:50:00;97563.91;;;23.96;52.09
53900;BME280;40509;32.858;-116.858;2023-06-05T00:52:27;97567.16;;;23.98;52.13
53900;BME280;40509;32.858;-116.858;2023-06-05T00:54:54;97573.25;;;23.98;51.92
53900;BME280;40509;32.858;-116.858;2023-06-05T00:57:21;97572.25;;;23.99;52.03
53900;BME280;40509;32.858;-116.858;2023-06-05T00:59:51;97567.81;;;24.00;52.29
53900;BME280;40509;32.858;-116.858;2023-06-05T01:02:19;97573.09;;;24.00;52.41
53900;BME280;40509;32.858;-116.858;2023-06-05T01:04:48;97567.97;;;23.98;52.42
53900;BME280;40509;32.858;-116.858;2023-06-05T01:07:16;97571.44;;;23.99;52.24
53900;BME280;40509;32.858;-116.858;2023-06-05T01:09:44;97570.47;;;24.00;52.20
53900;BME280;40509;32.858;-116.858;2023-06-05T01:12:16;97573.91;;;24.00;52.62
53900;BME280;40509;32.858;-116.858;2023-06-05T01:14:45;97578.38;;;24.00;52.26
53900;BME280;40509;32.858;-116.858;2023-06-05T01:17:16;97581.81;;;24.00;52.26
53900;BME280;40509;32.858;-116.858;2023-06-05T01:19:45;97584.09;;;24.03;52.68
53900;BME280;40509;32.858;-116.858;2023-06-05T01:22:12;97585.91;;;24.03;52.35
53900;BME280;40509;32.858;-116.858;2023-06-05T01:24:39;97591.19;;;24.03;52.30
53900;BME280;40509;32.858;-116.858;2023-06-05T01:32:13;97608.66;;;24.04;52.60
53900;BME280;40509;32.858;-116.858;2023-06-05T01:34:43;97609.47;;;24.04;52.42
53900;BME280;40509;32.858;-116.858;2023-06-05T01:37:10;97615.56;;;24.05;52.54
53900;BME280;40509;32.858;-116.858;2023-06-05T01:39:45;97619.22;;;24.04;52.65
53900;BME280;40509;32.858;-116.858;2023-06-05T01:42:14;97622.47;;;24.06;52.77
53900;BME280;40509;32.858;-116.858;2023-06-05T01:44:41;97623.31;;;24.06;52.48
53900;BME280;40509;32.858;-116.858;2023-06-05T01:47:09;97625.94;;;24.06;52.52
53900;BME280;40509;32.858;-116.858;2023-06-05T01:49:36;97627.75;;;24.06;52.46
53900;BME280;40509;32.858;-116.858;2023-06-05T01:52:03;97633.03;;;24.06;52.59
53900;BME280;40509;32.858;-116.858;2023-06-05T01:54:30;97638.28;;;24.06;52.78
53900;BME280;40509;32.858;-116.858;2023-06-05T01:57:00;97634.00;;;24.05;52.77
53900;BME280;40509;32.858;-116.858;2023-06-05T01:59:27;97648.84;;;24.06;52.60
53900;BME280;40509;32.858;-116.858;2023-06-05T02:01:54;97649.81;;;24.05;52.40
53900;BME280;40509;32.858;-116.858;2023-06-05T02:04:20;97649.69;;;24.06;52.56
53900;BME280;40509;32.858;-116.858;2023-06-05T02:06:48;97658.59;;;24.05;52.55
53900;BME280;40509;32.858;-116.858;2023-06-05T02:09:15;97655.09;;;24.05;52.82
53900;BME280;40509;32.858;-116.858;2023-06-05T02:11:42;97654.13;;;24.06;53.04
53900;BME280;40509;32.858;-116.858;2023-06-05T02:14:09;97661.22;;;24.05;52.56
53900;BME280;40509;32.858;-116.858;2023-06-05T02:16:42;97663.00;;;24.05;52.76
53900;BME280;40509;32.858;-116.858;2023-06-05T02:19:09;97675.22;;;24.06;52.99
53900;BME280;40509;32.858;-116.858;2023-06-05T02:21:37;97670.78;;;24.06;52.93
53900;BME280;40509;32.858;-116.858;2023-06-05T02:24:04;97677.84;;;24.06;52.89
53900;BME280;40509;32.858;-116.858;2023-06-05T02:26:31;97683.97;;;24.06;52.77
53900;BME280;40509;32.858;-116.858;2023-06-05T02:28:59;97691.88;;;24.06;53.15
53900;BME280;40509;32.858;-116.858;2023-06-05T02:31:26;97689.38;;;24.05;53.00
53900;BME280;40509;32.858;-116.858;2023-06-05T02:33:56;97689.56;;;24.03;52.68
53900;BME280;40509;32.858;-116.858;2023-06-05T02:36:23;97696.22;;;23.83;49.16
53900;BME280;40509;32.858;-116.858;2023-06-05T02:38:52;97699.56;;;23.68;50.13
53900;BME280;40509;32.858;-116.858;2023-06-05T02:41:20;97698.44;;;23.63;49.44
53900;BME280;40509;32.858;-116.858;2023-06-05T02:43:50;97704.09;;;23.51;49.96
53900;BME280;40509;32.858;-116.858;2023-06-05T02:46:17;97710.50;;;23.49;49.79
53900;BME280;40509;32.858;-116.858;2023-06-05T02:48:45;97710.56;;;23.32;49.09
53900;BME280;40509;32.858;-116.858;2023-06-05T02:51:12;97708.03;;;23.55;49.31
53900;BME280;40509;32.858;-116.858;2023-06-05T02:53:42;97715.72;;;23.65;48.74
53900;BME280;40509;32.858;-116.858;2023-06-05T02:56:10;97720.53;;;23.62;59.83
53900;BME280;40509;32.858;-116.858;2023-06-05T02:58:39;97719.09;;;23.51;50.62
53900;BME280;40509;32.858;-116.858;2023-06-05T03:01:10;97733.38;;;23.56;50.16
53900;BME280;40509;32.858;-116.858;2023-06-05T03:03:42;97729.91;;;23.56;50.15
53900;BME280;40509;32.858;-116.858;2023-06-05T03:06:09;97723.69;;;23.49;49.57
53900;BME280;40509;32.858;-116.858;2023-06-05T03:08:43;97732.09;;;23.52;50.64
53900;BME280;40509;32.858;-116.858;2023-06-05T03:11:14;97733.25;;;23.50;50.91
53900;BME280;40509;32.858;-116.858;2023-06-05T03:13:41;97739.66;;;23.47;50.97
53900;BME280;40509;32.858;-116.858;2023-06-05T03:16:09;97744.25;;;23.45;51.67
53900;BME280;40509;32.858;-116.858;2023-06-05T03:18:40;97738.19;;;23.45;50.69
53900;BME280;40509;32.858;-116.858;2023-06-05T03:21:07;97738.34;;;23.51;50.17
53900;BME280;40509;32.858;-116.858;2023-06-05T03:23:36;97736.50;;;23.52;50.39
53900;BME280;40509;32.858;-116.858;2023-06-05T03:26:04;97742.63;;;23.52;50.96
53900;BME280;40509;32.858;-116.858;2023-06-05T03:28:31;97749.38;;;23.55;50.84
53900;BME280;40509;32.858;-116.858;2023-06-05T03:31:02;97751.47;;;23.60;51.53
53900;BME280;40509;32.858;-116.858;2023-06-05T03:33:34;97762.69;;;23.62;51.30
53900;BME280;40509;32.858;-116.858;2023-06-05T03:36:01;97755.59;;;23.62;51.30
53900;BME280;40509;32.858;-116.858;2023-06-05T03:38:29;97749.34;;;23.63;50.86
53900;BME280;40509;32.858;-116.858;2023-06-05T03:40:56;97756.09;;;23.66;51.41
53900;BME280;40509;32.858;-116.858;2023-06-05T03:43:22;97757.88;;;23.65;50.89
53900;BME280;40509;32.858;-116.858;2023-06-05T03:45:51;97759.53;;;23.66;51.33
53900;BME280;40509;32.858;-116.858;2023-06-05T03:48:20;97759.53;;;23.66;50.99
53900;BME280;40509;32.858;-116.858;2023-06-05T03:50:48;97755.91;;;23.67;51.23
53900;BME280;40509;32.858;-116.858;2023-06-05T03:53:19;97764.63;;;23.68;51.27
53900;BME280;40509;32.858;-116.858;2023-06-05T03:55:46;97761.19;;;23.67;51.48
53900;BME280;40509;32.858;-116.858;2023-06-05T03:58:21;97763.81;;;23.67;51.41
53900;BME280;40509;32.858;-116.858;2023-06-05T04:00:52;97766.47;;;23.67;51.47
53900;BME280;40509;32.858;-116.858;2023-06-05T04:03:20;97765.63;;;23.67;51.51
53900;BME280;40509;32.858;-116.858;2023-06-05T04:05:49;97767.09;;;23.69;51.65
53900;BME280;40509;32.858;-116.858;2023-06-05T04:08:16;97764.63;;;23.68;51.76
53900;BME280;40509;32.858;-116.858;2023-06-05T04:10:43;97765.63;;;23.67;52.16
53900;BME280;40509;32.858;-116.858;2023-06-05T04:13:11;97761.19;;;23.67;51.87
53900;BME280;40509;32.858;-116.858;2023-06-05T04:15:38;97759.53;;;23.66;52.15
53900;BME280;40509;32.858;-116.858;2023-06-05T04:18:06;97761.38;;;23.66;52.33
53900;BME280;40509;32.858;-116.858;2023-06-05T04:20:33;97769.41;;;23.64;51.98
53900;BME280;40509;32.858;-116.858;2023-06-05T04:22:59;97765.63;;;23.67;52.31
53900;BME280;40509;32.858;-116.858;2023-06-05T04:25:28;97775.34;;;23.66;52.36
53900;BME280;40509;32.858;-116.858;2023-06-05T04:27:55;97778.47;;;23.70;52.36
53900;BME280;40509;32.858;-116.858;2023-06-05T04:30:22;97780.97;;;23.63;52.88
53900;BME280;40509;32.858;-116.858;2023-06-05T04:32:51;97776.00;;;23.60;53.09
53900;BME280;40509;32.858;-116.858;2023-06-05T04:35:23;97780.47;;;23.60;53.08
53900;BME280;40509;32.858;-116.858;2023-06-05T04:37:50;97779.00;;;23.57;52.91
53900;BME280;40509;32.858;-116.858;2023-06-05T04:40:18;97786.09;;;23.56;53.33
53900;BME280;40509;32.858;-116.858;2023-06-05T04:42:50;97787.06;;;23.55;53.24
53900;BME280;40509;32.858;-116.858;2023-06-05T04:45:20;97796.78;;;23.55;53.40
53900;BME280;40509;32.858;-116.858;2023-06-05T04:47:48;97796.94;;;23.53;53.18
53900;BME280;40509;32.858;-116.858;2023-06-05T04:50:25;97797.94;;;23.52;53.49
53900;BME280;40509;32.858;-116.858;2023-06-05T04:53:02;97798.94;;;23.51;53.51
53900;BME280;40509;32.858;-116.858;2023-06-05T04:55:29;97796.47;;;23.50;53.61
53900;BME280;40509;32.858;-116.858;2023-06-05T04:57:56;97792.84;;;23.51;53.30
53900;BME280;40509;32.858;-116.858;2023-06-05T05:00:29;97787.72;;;23.49;53.28
53900;BME280;40509;32.858;-116.858;2023-06-05T05:02:56;97786.91;;;23.49;53.54
53900;BME280;40509;32.858;-116.858;2023-06-05T05:05:22;97786.09;;;23.48;53.43
53900;BME280;40509;32.858;-116.858;2023-06-05T05:07:52;97792.34;;;23.47;53.25
53900;BME280;40509;32.858;-116.858;2023-06-05T05:10:20;97795.97;;;23.46;53.60
53900;BME280;40509;32.858;-116.858;2023-06-05T05:12:48;97795.97;;;23.46;53.68
53900;BME280;40509;32.858;-116.858;2023-06-05T05:15:15;97789.88;;;23.46;53.59
53900;BME280;40509;32.858;-116.858;2023-06-05T05:17:42;97791.69;;;23.45;53.45
53900;BME280;40509;32.858;-116.858;2023-06-05T05:20:09;97790.06;;;23.44;53.58
53900;BME280;40509;32.858;-116.858;2023-06-05T05:22:38;97791.84;;;23.44;53.51
53900;BME280;40509;32.858;-116.858;2023-06-05T05:25:05;97796.31;;;23.43;53.41
53900;BME280;40509;32.858;-116.858;2023-06-05T05:27:31;97787.75;;;23.41;53.62
53900;BME280;40509;32.858;-116.858;2023-06-05T05:29:59;97791.38;;;23.40;53.52
53900;BME280;40509;32.858;-116.858;2023-06-05T05:32:26;97790.53;;;23.39;53.57
53900;BME280;40509;32.858;-116.858;2023-06-05T05:34:53;97791.53;;;23.38;53.65
53900;BME280;40509;32.858;-116.858;2023-06-05T05:37:21;97785.44;;;23.38;53.48
53900;BME280;40509;32.858;-116.858;2023-06-05T05:39:49;97777.53;;;23.38;53.62
53900;BME280;40509;32.858;-116.858;2023-06-05T05:42:16;97777.53;;;23.38;53.42
53900;BME280;40509;32.858;-116.858;2023-06-05T05:44:44;97776.72;;;23.37;53.67
53900;BME280;40509;32.858;-116.858;2023-06-05T05:47:11;97775.88;;;23.37;53.69
53900;BME280;40509;32.858;-116.858;2023-06-05T05:49:37;97774.28;;;23.36;53.31
53900;BME280;40509;32.858;-116.858;2023-06-05T05:52:04;97774.28;;;23.36;53.59
53900;BME280;40509;32.858;-116.858;2023-06-05T05:54:31;97772.63;;;23.35;53.70
53900;BME280;40509;32.858;-116.858;2023-06-05T05:56:58;97770.97;;;23.34;53.54
53900;BME280;40509;32.858;-116.858;2023-06-05T05:59:25;97771.94;;;23.33;53.20
53900;BME280;40509;32.858;-116.858;2023-06-05T06:01:51;97773.59;;;23.34;53.54
53900;BME280;40509;32.858;-116.858;2023-06-05T06:04:19;97768.50;;;23.32;53.67
53900;BME280;40509;32.858;-116.858;2023-06-05T06:06:46;97771.31;;;23.31;53.43
53900;BME280;40509;32.858;-116.858;2023-06-05T06:09:18;97766.34;;;23.28;53.64
53900;BME280;40509;32.858;-116.858;2023-06-05T06:11:45;97767.66;;;23.23;53.59
53900;BME280;40509;32.858;-116.858;2023-06-05T06:14:12;97770.66;;;23.20;53.49
53900;BME280;40509;32.858;-116.858;2023-06-05T06:16:39;97760.09;;;23.20;53.85
53900;BME280;40509;32.858;-116.858;2023-06-05T06:19:06;97758.47;;;23.19;53.56
53900;BME280;40509;32.858;-116.858;2023-06-05T06:21:35;97758.47;;;23.19;53.57
53900;BME280;40509;32.858;-116.858;2023-06-05T06:24:01;97763.09;;;23.17;53.60
53900;BME280;40509;32.858;-116.858;2023-06-05T06:26:29;97756.84;;;23.18;53.42
53900;BME280;40509;32.858;-116.858;2023-06-05T06:28:57;97762.09;;;23.18;53.35
53900;BME280;40509;32.858;-116.858;2023-06-05T06:31:25;97759.94;;;23.14;53.73
53900;BME280;40509;32.858;-116.858;2023-06-05T06:33:52;97767.19;;;23.12;53.48
53900;BME280;40509;32.858;-116.858;2023-06-05T06:36:20;97757.16;;;23.15;53.46
53900;BME280;40509;32.858;-116.858;2023-06-05T06:38:47;97757.44;;;23.12;53.34
53900;BME280;40509;32.858;-116.858;2023-06-05T06:41:14;97762.22;;;23.08;53.45
53900;BME280;40509;32.858;-116.858;2023-06-05T06:43:41;97762.06;;;23.10;53.69
53900;BME280;40509;32.858;-116.858;2023-06-05T06:46:08;97760.28;;;23.19;53.14
53900;BME280;40509;32.858;-116.858;2023-06-05T06:48:34;97759.31;;;23.20;53.30
53900;BME280;40509;32.858;-116.858;2023-06-05T06:51:01;97762.09;;;23.18;53.05
53900;BME280;40509;32.858;-116.858;2023-06-05T06:53:28;97756.34;;;23.15;53.55
53900;BME280;40509;32.858;-116.858;2023-06-05T06:55:55;97747.75;;;23.13;53.14
53900;BME280;40509;32.858;-116.858;2023-06-05T06:58:23;97742.50;;;23.13;53.16
53900;BME280;40509;32.858;-116.858;2023-06-05T07:00:50;97746.13;;;23.12;53.17
53900;BME280;40509;32.858;-116.858;2023-06-05T07:03:17;97734.75;;;23.11;53.24
53900;BME280;40509;32.858;-116.858;2023-06-05T07:05:44;97744.47;;;23.11;53.29
53900;BME280;40509;32.858;-116.858;2023-06-05T07:08:11;97738.38;;;23.10;53.51
53900;BME280;40509;32.858;-116.858;2023-06-05T07:10:39;97738.53;;;23.08;53.29
53900;BME280;40509;32.858;-116.858;2023-06-05T07:13:06;97735.06;;;23.08;53.44
53900;BME280;40509;32.858;-116.858;2023-06-05T07:15:33;97733.44;;;23.07;53.71
53900;BME280;40509;32.858;-116.858;2023-06-05T07:17:59;97738.69;;;23.07;53.42
53900;BME280;40509;32.858;-116.858;2023-06-05T07:20:26;97730.97;;;23.05;53.43
53900;BME280;40509;32.858;-116.858;2023-06-05T07:22:53;97728.50;;;23.04;53.70
53900;BME280;40509;32.858;-116.858;2023-06-05T07:25:20;97731.13;;;23.04;53.38
53900;BME280;40509;32.858;-116.858;2023-06-05T07:27:50;97730.47;;;23.02;53.41
53900;BME280;40509;32.858;-116.858;2023-06-05T07:30:18;97726.03;;;23.02;53.34
53900;BME280;40509;32.858;-116.858;2023-06-05T07:32:45;97727.03;;;23.01;53.62
53900;BME280;40509;32.858;-116.858;2023-06-05T07:35:12;97725.38;;;23.00;53.56
53900;BME280;40509;32.858;-116.858;2023-06-05T07:37:40;97719.28;;;23.00;53.41
53900;BME280;40509;32.858;-116.858;2023-06-05T07:40:08;97718.47;;;22.99;53.32
53900;BME280;40509;32.858;-116.858;2023-06-05T07:42:35;97709.09;;;22.97;53.40
53900;BME280;40509;32.858;-116.858;2023-06-05T07:45:02;97705.63;;;22.96;53.74
53900;BME280;40509;32.858;-116.858;2023-06-05T07:47:30;97706.47;;;22.97;53.48
53900;BME280;40509;32.858;-116.858;2023-06-05T07:49:57;97699.56;;;22.96;53.46
53900;BME280;40509;32.858;-116.858;2023-06-05T07:52:25;97692.81;;;22.93;53.49
53900;BME280;40509;32.858;-116.858;2023-06-05T07:54:52;97689.19;;;22.94;53.71
53900;BME280;40509;32.858;-116.858;2023-06-05T07:57:19;97687.38;;;22.95;53.47
53900;BME280;40509;32.858;-116.858;2023-06-05T07:59:46;97689.38;;;22.93;53.75
53900;BME280;40509;32.858;-116.858;2023-06-05T08:02:15;97692.00;;;22.93;53.30
53900;BME280;40509;32.858;-116.858;2023-06-05T08:04:42;97692.13;;;22.91;53.45
53900;BME280;40509;32.858;-116.858;2023-06-05T08:07:10;97686.06;;;22.90;53.76
53900;BME280;40509;32.858;-116.858;2023-06-05T08:09:37;97686.22;;;22.89;53.41
53900;BME280;40509;32.858;-116.858;2023-06-05T08:12:04;97686.41;;;22.87;53.84
53900;BME280;40509;32.858;-116.858;2023-06-05T08:14:31;97681.13;;;22.87;53.45
53900;BME280;40509;32.858;-116.858;2023-06-05T08:16:58;97681.13;;;22.87;53.78
53900;BME280;40509;32.858;-116.858;2023-06-05T08:19:25;97675.88;;;22.87;53.43
53900;BME280;40509;32.858;-116.858;2023-06-05T08:21:52;97679.47;;;22.86;53.84
53900;BME280;40509;32.858;-116.858;2023-06-05T08:24:23;97676.22;;;22.84;53.47
53900;BME280;40509;32.858;-116.858;2023-06-05T08:26:50;97673.59;;;22.84;53.73
53900;BME280;40509;32.858;-116.858;2023-06-05T08:29:17;97667.47;;;22.84;53.42
53900;BME280;40509;32.858;-116.858;2023-06-05T08:31:44;97672.09;;;22.82;53.78
53900;BME280;40509;32.858;-116.858;2023-06-05T08:34:10;97670.28;;;22.82;53.44
53900;BME280;40509;32.858;-116.858;2023-06-05T08:36:38;97666.84;;;22.82;53.60
53900;BME280;40509;32.858;-116.858;2023-06-05T08:39:05;97671.09;;;22.83;53.47
53900;BME280;40509;32.858;-116.858;2023-06-05T08:41:32;97670.63;;;22.79;53.82
53900;BME280;40509;32.858;-116.858;2023-06-05T08:43:59;97668.78;;;22.80;53.78
53900;BME280;40509;32.858;-116.858;2023-06-05T08:46:27;97668.97;;;22.78;53.88
53900;BME280;40509;32.858;-116.858;2023-06-05T08:48:54;97669.94;;;22.77;53.86
53900;BME280;40509;32.858;-116.858;2023-06-05T08:51:22;97661.41;;;22.75;53.87
53900;BME280;40509;32.858;-116.858;2023-06-05T08:53:57;97659.75;;;22.74;53.82
53900;BME280;40509;32.858;-116.858;2023-06-05T08:56:25;97659.75;;;22.74;53.82
53900;BME280;40509;32.858;-116.858;2023-06-05T08:58:53;97664.22;;;22.73;53.82
53900;BME280;40509;32.858;-116.858;2023-06-05T09:01:21;97660.75;;;22.73;53.49
53900;BME280;40509;32.858;-116.858;2023-06-05T09:03:48;97663.53;;;22.71;53.88
53900;BME280;40509;32.858;-116.858;2023-06-05T09:06:14;97661.72;;;22.72;53.81
53900;BME280;40509;32.858;-116.858;2023-06-05T09:08:41;97660.09;;;22.71;53.58
53900;BME280;40509;32.858;-116.858;2023-06-05T09:13:47;97655.16;;;22.68;53.64
53900;BME280;40509;32.858;-116.858;2023-06-05T09:16:14;97652.50;;;22.68;53.64
53900;BME280;40509;32.858;-116.858;2023-06-05T09:18:53;97650.88;;;22.67;54.00
53900;BME280;40509;32.858;-116.858;2023-06-05T09:21:20;97648.25;;;22.67;53.79
53900;BME280;40509;32.858;-116.858;2023-06-05T09:23:47;97649.88;;;22.68;53.85
53900;BME280;40509;32.858;-116.858;2023-06-05T09:26:13;97650.88;;;22.67;53.93
53900;BME280;40509;32.858;-116.858;2023-06-05T09:28:53;97654.50;;;22.66;53.53
53900;BME280;40509;32.858;-116.858;2023-06-05T09:31:24;97643.31;;;22.64;53.57
53900;BME280;40509;32.858;-116.858;2023-06-05T09:33:54;97641.69;;;22.63;53.57
53900;BME280;40509;32.858;-116.858;2023-06-05T09:36:23;97638.88;;;22.64;53.75
53900;BME280;40509;32.858;-116.858;2023-06-05T09:38:52;97639.88;;;22.63;53.49
53900;BME280;40509;32.858;-116.858;2023-06-05T09:41:19;97647.59;;;22.65;53.61
53900;BME280;40509;32.858;-116.858;2023-06-05T09:43:46;97633.94;;;22.61;53.97
53900;BME280;40509;32.858;-116.858;2023-06-05T09:46:15;97636.72;;;22.60;53.80
53900;BME280;40509;32.858;-116.858;2023-06-05T09:48:42;97636.09;;;22.58;54.16
53900;BME280;40509;32.858;-116.858;2023-06-05T09:51:16;97634.28;;;22.58;54.09
53900;BME280;40509;32.858;-116.858;2023-06-05T09:53:48;97629.84;;;22.59;54.05
53900;BME280;40509;32.858;-116.858;2023-06-05T09:56:15;97629.84;;;22.59;54.08
53900;BME280;40509;32.858;-116.858;2023-06-05T09:58:49;97628.19;;;22.58;54.11
53900;BME280;40509;32.858;-116.858;2023-06-05T10:01:21;97632.78;;;22.55;53.93
53900;BME280;40509;32.858;-116.858;2023-06-05T10:03:58;97627.69;;;22.54;54.17
53900;BME280;40509;32.858;-116.858;2023-06-05T10:06:28;97626.72;;;22.55;54.06
53900;BME280;40509;32.858;-116.858;2023-06-05T10:08:56;97633.78;;;22.54;54.17
53900;BME280;40509;32.858;-116.858;2023-06-05T10:11:24;97635.13;;;22.59;53.90
53900;BME280;40509;32.858;-116.858;2023-06-05T10:13:53;97632.78;;;22.55;54.15
53900;BME280;40509;32.858;-116.858;2023-06-05T10:16:21;97630.50;;;22.52;53.96
53900;BME280;40509;32.858;-116.858;2023-06-05T10:18:48;97621.78;;;22.52;54.04
53900;BME280;40509;32.858;-116.858;2023-06-05T10:21:15;97621.94;;;22.50;53.96
53900;BME280;40509;32.858;-116.858;2023-06-05T10:23:48;97619.47;;;22.49;54.00
53900;BME280;40509;32.858;-116.858;2023-06-05T10:39:18;97619.81;;;22.46;53.82
53900;BME280;40509;32.858;-116.858;2023-06-05T10:41:47;97612.91;;;22.45;53.69
53900;BME280;40509;32.858;-116.858;2023-06-05T10:44:16;97619.97;;;22.44;54.07
53900;BME280;40509;32.858;-116.858;2023-06-05T10:46:43;97621.63;;;22.45;53.79
53900;BME280;40509;32.858;-116.858;2023-06-05T10:49:11;97625.25;;;22.44;53.96
53900;BME280;40509;32.858;-116.858;2023-06-05T10:51:48;97623.94;;;22.48;53.80
53900;BME280;40509;32.858;-116.858;2023-06-05T11:04:37;97627.19;;;22.42;53.79
53900;BME280;40509;32.858;-116.858;2023-06-05T11:15:03;97626.88;;;22.37;53.77
53900;BME280;40509;32.858;-116.858;2023-06-05T11:17:30;97628.69;;;22.36;53.85
53900;BME280;40509;32.858;-116.858;2023-06-05T11:20:01;97626.72;;;22.38;53.51
53900;BME280;40509;32.858;-116.858;2023-06-05T11:22:31;97628.84;;;22.35;53.55
53900;BME280;40509;32.858;-116.858;2023-06-05T11:27:45;97624.41;;;22.35;53.80
53900;BME280;40509;32.858;-116.858;2023-06-05T11:30:12;97619.13;;;22.35;53.66
53900;BME280;40509;32.858;-116.858;2023-06-05T11:32:39;97620.97;;;22.35;53.34
53900;BME280;40509;32.858;-116.858;2023-06-05T11:35:06;97621.25;;;22.32;53.65
53900;BME280;40509;32.858;-116.858;2023-06-05T11:37:35;97621.91;;;22.34;53.60
53900;BME280;40509;32.858;-116.858;2023-06-05T11:40:06;97621.09;;;22.33;53.41
53900;BME280;40509;32.858;-116.858;2023-06-05T11:42:36;97620.28;;;22.33;53.50
53900;BME280;40509;32.858;-116.858;2023-06-05T11:45:13;97615.84;;;22.33;53.47
53900;BME280;40509;32.858;-116.858;2023-06-05T11:47:41;97608.94;;;22.32;53.29
53900;BME280;40509;32.858;-116.858;2023-06-05T11:50:09;97615.84;;;22.33;53.47
53900;BME280;40509;32.858;-116.858;2023-06-05T11:52:36;97610.75;;;22.32;53.27
53900;BME280;40509;32.858;-116.858;2023-06-05T11:55:13;97616.81;;;22.32;53.43
53900;BME280;40509;32.858;-116.858;2023-06-05T11:57:42;97620.13;;;22.26;53.47
53900;BME280;40509;32.858;-116.858;2023-06-05T12:00:10;97617.31;;;22.28;53.26
53900;BME280;40509;32.858;-116.858;2023-06-05T12:02:38;97613.69;;;22.29;53.38
53900;BME280;40509;32.858;-116.858;2023-06-05T12:05:05;97618.94;;;22.29;53.44
53900;BME280;40509;32.858;-116.858;2023-06-05T12:07:34;97621.25;;;22.23;53.41
53900;BME280;40509;32.858;-116.858;2023-06-05T12:10:07;97623.72;;;22.25;53.24
53900;BME280;40509;32.858;-116.858;2023-06-05T12:12:34;97629.78;;;22.26;53.40
53900;BME280;40509;32.858;-116.858;2023-06-05T12:15:14;97625.50;;;22.24;53.38
53900;BME280;40509;32.858;-116.858;2023-06-05T12:17:48;97628.97;;;22.25;53.43
53900;BME280;40509;32.858;-116.858;2023-06-05T12:20:15;97634.25;;;22.25;53.45
53900;BME280;40509;32.858;-116.858;2023-06-05T12:22:42;97628.47;;;22.21;53.31
53900;BME280;40509;32.858;-116.858;2023-06-05T12:25:16;97626.00;;;22.20;53.50
53900;BME280;40509;32.858;-116.858;2023-06-05T12:27:44;97630.13;;;22.22;53.49
53900;BME280;40509;32.858;-116.858;2023-06-05T12:30:13;97635.56;;;22.21;53.55
53900;BME280;40509;32.858;-116.858;2023-06-05T12:32:42;97637.34;;;22.20;53.36
53900;BME280;40509;32.858;-116.858;2023-06-05T12:35:21;97638.66;;;22.16;53.47
53900;BME280;40509;32.858;-116.858;2023-06-05T12:37:51;97632.41;;;22.17;53.54
53900;BME280;40509;32.858;-116.858;2023-06-05T12:40:18;97633.09;;;22.19;53.60
53900;BME280;40509;32.858;-116.858;2023-06-05T12:42:48;97636.69;;;22.18;53.49
53900;BME280;40509;32.858;-116.858;2023-06-05T12:45:14;97636.19;;;22.15;53.60
53900;BME280;40509;32.858;-116.858;2023-06-05T12:47:43;97639.31;;;22.18;53.33
53900;BME280;40509;32.858;-116.858;2023-06-05T12:50:10;97635.22;;;22.16;53.32
53900;BME280;40509;32.858;-116.858;2023-06-05T12:52:40;97630.63;;;22.18;53.32
53900;BME280;40509;32.858;-116.858;2023-06-05T12:55:07;97633.38;;;22.16;53.59
53900;BME280;40509;32.858;-116.858;2023-06-05T12:57:34;97639.50;;;22.17;53.26
53900;BME280;40509;32.858;-116.858;2023-06-05T13:00:04;97641.63;;;22.13;53.25
53900;BME280;40509;32.858;-116.858;2023-06-05T13:02:42;97633.56;;;22.15;53.33
53900;BME280;40509;32.858;-116.858;2023-06-05T13:05:14;97637.03;;;22.15;53.46
53900;BME280;40509;32.858;-116.858;2023-06-05T13:07:41;97640.13;;;22.11;53.37
53900;BME280;40509;32.858;-116.858;2023-06-05T13:10:08;97640.13;;;22.11;53.39
53900;BME280;40509;32.858;-116.858;2023-06-05T13:12:37;97633.88;;;22.12;53.22
53900;BME280;40509;32.858;-116.858;2023-06-05T13:15:04;97636.53;;;22.12;53.25
53900;BME280;40509;32.858;-116.858;2023-06-05T13:17:33;97647.84;;;22.12;53.19